createdAt,value
2022-11-07T00:00:40.067Z,73.40
2022-11-07T00:03:07.385Z,73.50
2022-11-07T00:05:34.683Z,73.40
2022-11-07T00:08:01.964Z,73.60
2022-11-07T00:10:29.217Z,73.40
2022-11-07T00:12:56.467Z,73.20
2022-11-07T00:15:23.769Z,73.30
2022-11-07T00:17:52.332Z,73.40
2022-11-07T00:20:19.589Z,73.30
2022-11-07T00:22:46.848Z,73.20
2022-11-07T00:25:14.210Z,73.30
2022-11-07T00:27:41.505Z,73.20
2022-11-07T00:30:09.504Z,73.60
2022-11-07T00:32:37.026Z,73.80
2022-11-07T00:35:06.214Z,73.90
2022-11-07T00:37:33.883Z,73.90
2022-11-07T00:40:01.120Z,73.90
2022-11-07T00:42:28.380Z,74.10
2022-11-07T00:44:55.616Z,74.10
2022-11-07T00:47:22.858Z,74.20
2022-11-07T00:49:50.624Z,74.20
2022-11-07T00:52:19.226Z,74.10
2022-11-07T00:54:46.556Z,74.20
2022-11-07T00:57:13.812Z,74.40
2022-11-07T00:59:41.140Z,74.00
2022-11-07T01:02:08.541Z,74.00
2022-11-07T01:04:55.420Z,74.10
2022-11-07T01:07:24.042Z,74.00
2022-11-07T01:09:51.390Z,74.00
2022-11-07T01:12:18.667Z,73.90
2022-11-07T01:14:45.992Z,74.10
2022-11-07T01:17:13.237Z,74.30
2022-11-07T01:19:40.544Z,74.50
2022-11-07T01:22:07.828Z,74.20
2022-11-07T01:24:36.446Z,74.20
2022-11-07T01:27:03.893Z,74.20
2022-11-07T01:29:31.184Z,74.60
2022-11-07T01:31:58.468Z,74.70
2022-11-07T01:34:25.766Z,74.40
2022-11-07T01:36:53.742Z,74.40
2022-11-07T01:39:21.011Z,74.10
2022-11-07T01:41:49.626Z,74.10
2022-11-07T01:44:59.772Z,73.80
2022-11-07T01:47:30.304Z,73.70
2022-11-07T01:49:59.103Z,73.70
2022-11-07T01:52:30.391Z,73.70
2022-11-07T01:55:01.441Z,73.50
2022-11-07T01:57:33.192Z,73.50
2022-11-07T02:00:04.472Z,73.60
2022-11-07T02:02:32.966Z,73.50
2022-11-07T02:05:02.155Z,73.70
2022-11-07T02:07:30.022Z,73.60
2022-11-07T02:09:57.502Z,73.70
2022-11-07T02:12:26.596Z,73.80
2022-11-07T02:14:56.095Z,73.90
2022-11-07T02:17:23.462Z,73.80
2022-11-07T02:19:53.815Z,74.10
2022-11-07T02:22:29.594Z,74.10
2022-11-07T02:25:01.110Z,74.00
2022-11-07T02:27:31.506Z,74.00
2022-11-07T02:30:02.396Z,73.90
2022-11-07T02:32:30.094Z,73.80
2022-11-07T02:34:58.331Z,73.80
2022-11-07T02:37:30.095Z,73.80
2022-11-07T02:40:00.149Z,73.70
2022-11-07T02:42:43.246Z,73.70
2022-11-07T02:45:13.004Z,73.80
2022-11-07T02:47:40.481Z,73.90
2022-11-07T02:50:09.505Z,73.80
2022-11-07T02:52:37.057Z,73.80
2022-11-07T02:55:07.634Z,73.70
2022-11-07T02:57:35.031Z,73.60
2022-11-07T03:00:02.323Z,73.80
2022-11-07T03:02:29.728Z,73.80
2022-11-07T03:04:57.104Z,73.70
2022-11-07T03:07:24.672Z,73.90
2022-11-07T03:09:51.991Z,73.80
2022-11-07T03:12:20.664Z,74.10
2022-11-07T03:14:47.987Z,74.00
2022-11-07T03:17:15.332Z,73.80
2022-11-07T03:19:42.658Z,74.20
2022-11-07T03:22:09.912Z,74.10
2022-11-07T03:24:37.152Z,74.00
2022-11-07T03:27:04.552Z,74.10
2022-11-07T03:29:33.113Z,73.90
2022-11-07T03:32:00.354Z,73.90
2022-11-07T03:34:27.645Z,73.90
2022-11-07T03:36:54.902Z,73.90
2022-11-07T03:39:25.747Z,73.80
2022-11-07T03:41:53.384Z,73.70
2022-11-07T03:44:20.725Z,73.70
2022-11-07T03:46:49.320Z,73.90
2022-11-07T03:49:16.582Z,74.00
2022-11-07T03:51:43.835Z,73.90
2022-11-07T03:54:11.227Z,73.80
2022-11-07T03:56:38.566Z,74.10
2022-11-07T03:59:05.846Z,74.10
2022-11-07T04:01:33.568Z,73.90
2022-11-07T04:04:02.287Z,73.90
2022-11-07T04:06:29.548Z,73.90
2022-11-07T04:08:56.828Z,73.80
2022-11-07T04:11:42.506Z,73.70
2022-11-07T04:14:28.553Z,73.80
2022-11-07T04:17:14.627Z,73.80
2022-11-07T04:19:43.312Z,73.80
2022-11-07T04:22:10.589Z,73.90
2022-11-07T04:24:41.549Z,73.60
2022-11-07T04:27:32.419Z,73.50
2022-11-07T04:30:00.037Z,73.60
2022-11-07T04:32:27.321Z,73.50
2022-11-07T04:34:56.014Z,73.40
2022-11-07T04:37:23.272Z,73.40
2022-11-07T04:39:50.558Z,73.40
2022-11-07T04:42:17.791Z,73.30
2022-11-07T04:44:45.045Z,73.10
2022-11-07T04:47:12.290Z,72.90
2022-11-07T04:49:39.522Z,72.90
2022-11-07T04:52:09.316Z,72.90
2022-11-07T04:54:36.540Z,72.90
2022-11-07T04:57:04.007Z,72.80
2022-11-07T04:59:31.262Z,72.90
2022-11-07T05:01:58.668Z,72.80
2022-11-07T05:04:26.170Z,72.90
2022-11-07T05:06:53.511Z,72.80
2022-11-07T05:09:22.180Z,72.70
2022-11-07T05:11:49.499Z,72.70
2022-11-07T05:14:16.851Z,72.50
2022-11-07T05:16:44.249Z,72.50
2022-11-07T05:19:15.266Z,72.30
2022-11-07T05:21:42.567Z,72.60
2022-11-07T05:24:09.847Z,72.50
2022-11-07T05:26:38.704Z,72.30
2022-11-07T05:29:09.007Z,72.40
2022-11-07T05:31:36.932Z,72.20
2022-11-07T05:34:04.191Z,72.20
2022-11-07T05:36:31.492Z,72.10
2022-11-07T05:38:58.762Z,72.10
2022-11-07T05:41:26.019Z,72.10
2022-11-07T05:43:54.655Z,72.30
2022-11-07T05:46:21.930Z,72.10
2022-11-07T05:48:51.034Z,71.90
2022-11-07T05:51:18.416Z,71.80
2022-11-07T05:53:45.658Z,71.70
2022-11-07T05:56:12.896Z,71.60
2022-11-07T05:58:40.160Z,71.60
2022-11-07T06:01:08.760Z,71.70
2022-11-07T06:03:36.093Z,71.50
2022-11-07T06:06:03.690Z,71.40
2022-11-07T06:08:30.952Z,71.40
2022-11-07T06:10:58.206Z,71.40
2022-11-07T06:13:25.751Z,71.40
2022-11-07T06:15:53.011Z,71.40
2022-11-07T06:18:21.644Z,71.10
2022-11-07T06:20:49.416Z,71.10
2022-11-07T06:23:17.520Z,71.50
2022-11-07T06:25:45.165Z,71.30
2022-11-07T06:28:14.059Z,71.10
2022-11-07T06:30:41.733Z,71.30
2022-11-07T06:33:15.621Z,71.30
2022-11-07T06:35:45.503Z,71.10
2022-11-07T06:38:14.131Z,71.10
2022-11-07T06:40:42.635Z,70.90
2022-11-07T06:43:11.685Z,71.00
2022-11-07T06:45:39.734Z,70.90
2022-11-07T06:48:07.656Z,70.90
2022-11-07T06:50:35.354Z,70.80
2022-11-07T06:53:05.721Z,70.80
2022-11-07T06:55:33.792Z,70.90
2022-11-07T06:58:01.466Z,70.80
2022-11-07T07:00:29.507Z,70.70
2022-11-07T07:02:58.803Z,70.60
2022-11-07T07:05:26.459Z,70.50
2022-11-07T07:07:55.308Z,71.50
2022-11-07T07:10:25.165Z,71.20
2022-11-07T07:12:52.975Z,71.80
2022-11-07T07:15:20.287Z,72.00
2022-11-07T07:17:47.540Z,71.50
2022-11-07T07:20:14.906Z,71.40
2022-11-07T07:22:43.703Z,71.10
2022-11-07T07:25:11.592Z,70.90
2022-11-07T07:27:40.154Z,70.30
2022-11-07T07:30:08.995Z,70.30
2022-11-07T07:32:36.628Z,70.10
2022-11-07T07:35:04.668Z,70.20
2022-11-07T07:37:31.919Z,70.40
2022-11-07T07:39:59.198Z,70.40
2022-11-07T07:42:26.435Z,70.10
2022-11-07T07:44:56.116Z,70.10
2022-11-07T07:47:23.378Z,70.10
2022-11-07T07:49:50.636Z,70.30
2022-11-07T07:52:17.895Z,69.70
2022-11-07T07:54:45.195Z,69.90
2022-11-07T07:57:12.494Z,69.90
2022-11-07T07:59:39.744Z,70.00
2022-11-07T08:02:10.427Z,70.00
2022-11-07T08:04:37.765Z,70.10
2022-11-07T08:07:05.047Z,70.40
2022-11-07T08:09:36.464Z,70.20
2022-11-07T08:12:04.666Z,69.70
2022-11-07T08:14:32.820Z,69.70
2022-11-07T08:17:00.713Z,69.20
2022-11-07T08:19:29.357Z,67.20
2022-11-07T08:21:56.697Z,66.90
2022-11-07T08:24:23.944Z,65.80
2022-11-07T08:26:51.260Z,64.80
2022-11-07T08:29:18.591Z,64.70
2022-11-07T08:31:45.959Z,63.90
2022-11-07T08:34:13.501Z,62.70
2022-11-07T08:36:42.097Z,62.90
2022-11-07T08:39:09.393Z,61.50
2022-11-07T08:41:36.666Z,61.40
2022-11-07T08:44:04.203Z,60.40
2022-11-07T08:46:31.515Z,60.60
2022-11-07T08:48:58.775Z,59.60
2022-11-07T08:51:26.131Z,58.40
2022-11-07T08:53:54.772Z,58.10
2022-11-07T08:56:22.216Z,57.10
2022-11-07T08:58:49.475Z,57.60
2022-11-07T09:01:17.013Z,57.90
2022-11-07T09:03:48.883Z,57.80
2022-11-07T09:06:20.553Z,58.70
2022-11-07T09:08:47.854Z,58.40
2022-11-07T09:11:18.983Z,58.60
2022-11-07T09:13:47.182Z,57.90
2022-11-07T09:16:17.457Z,58.60
2022-11-07T09:18:45.687Z,59.40
2022-11-07T09:21:15.436Z,60.20
2022-11-07T09:23:46.649Z,60.30
2022-11-07T09:26:13.908Z,60.90
2022-11-07T09:28:45.720Z,60.70
2022-11-07T09:31:17.179Z,61.10
2022-11-07T09:33:44.431Z,61.20
2022-11-07T09:36:13.076Z,60.30
2022-11-07T09:38:40.515Z,60.60
2022-11-07T09:41:16.134Z,61.30
2022-11-07T09:44:06.311Z,60.70
2022-11-07T09:46:45.279Z,59.50
2022-11-07T09:49:19.595Z,59.70
2022-11-07T09:51:53.111Z,58.80
2022-11-07T09:54:24.792Z,58.20
2022-11-07T09:56:54.416Z,58.40
2022-11-07T09:59:25.792Z,58.40
2022-11-07T10:01:53.246Z,57.50
2022-11-07T10:04:25.814Z,56.90
2022-11-07T10:06:59.559Z,56.90
2022-11-07T10:09:34.608Z,55.90
2022-11-07T10:12:10.646Z,56.00
2022-11-07T10:14:50.908Z,55.60
2022-11-07T10:17:25.478Z,55.50
2022-11-07T10:20:10.806Z,53.80
2022-11-07T10:22:51.800Z,54.30
2022-11-07T10:25:28.713Z,53.70
2022-11-07T10:28:11.784Z,53.90
2022-11-07T10:30:42.103Z,54.00
2022-11-07T10:33:18.915Z,52.90
2022-11-07T10:35:49.520Z,52.10
2022-11-07T10:38:21.804Z,51.00
2022-11-07T10:40:51.392Z,52.30
2022-11-07T10:43:27.354Z,53.00
2022-11-07T10:45:56.689Z,51.90
2022-11-07T10:48:25.716Z,51.70
2022-11-07T10:50:53.827Z,51.10
2022-11-07T10:53:23.363Z,50.80
2022-11-07T10:55:51.846Z,51.90
2022-11-07T10:58:21.429Z,52.30
2022-11-07T11:01:02.647Z,51.30
2022-11-07T11:03:43.249Z,51.60
2022-11-07T11:06:22.679Z,51.40
2022-11-07T11:08:51.421Z,51.70
2022-11-07T11:11:28.889Z,51.70
2022-11-07T11:14:05.453Z,51.00
2022-11-07T11:16:37.682Z,52.70
2022-11-07T11:19:06.421Z,50.70
2022-11-07T11:21:41.318Z,51.00
2022-11-07T11:24:16.059Z,50.60
2022-11-07T11:26:44.398Z,50.10
2022-11-07T11:29:17.091Z,50.00
2022-11-07T11:31:49.140Z,49.60
2022-11-07T11:34:21.100Z,50.50
2022-11-07T11:36:56.704Z,50.10
2022-11-07T11:39:29.448Z,50.90
2022-11-07T11:41:59.101Z,51.10
2022-11-07T11:44:32.526Z,51.40
2022-11-07T11:47:10.889Z,51.90
2022-11-07T11:49:43.581Z,50.90
2022-11-07T11:52:15.867Z,50.70
2022-11-07T11:54:43.834Z,51.00
2022-11-07T11:57:15.623Z,49.90
2022-11-07T11:59:58.358Z,50.90
2022-11-07T12:03:02.905Z,49.80
2022-11-07T12:05:56.277Z,50.40
2022-11-07T12:08:34.935Z,49.50
2022-11-07T12:11:06.956Z,49.70
2022-11-07T12:13:42.987Z,49.40
2022-11-07T12:16:20.567Z,48.80
2022-11-07T12:18:54.170Z,49.10
2022-11-07T12:21:31.016Z,49.40
2022-11-07T12:24:10.883Z,50.20
2022-11-07T12:26:46.751Z,49.70
2022-11-07T12:29:24.205Z,49.90
2022-11-07T12:32:07.062Z,50.60
2022-11-07T12:34:45.845Z,50.30
2022-11-07T12:37:27.900Z,50.50
2022-11-07T12:40:18.330Z,51.80
2022-11-07T12:42:55.955Z,50.80
2022-11-07T12:45:41.462Z,50.80
2022-11-07T12:48:27.794Z,50.50
2022-11-07T12:51:03.225Z,51.50
2022-11-07T12:53:40.101Z,50.90
2022-11-07T12:56:13.817Z,50.80
2022-11-07T12:58:43.061Z,50.40
2022-11-07T13:01:13.538Z,50.50
2022-11-07T13:03:55.598Z,51.50
2022-11-07T13:06:27.957Z,51.90
2022-11-07T13:09:04.917Z,52.20
2022-11-07T13:11:42.092Z,51.90
2022-11-07T13:14:24.316Z,52.20
2022-11-07T13:17:03.123Z,52.90
2022-11-07T13:19:32.977Z,53.30
2022-11-07T13:22:03.033Z,54.20
2022-11-07T13:24:32.939Z,54.30
2022-11-07T13:27:00.413Z,54.40
2022-11-07T13:29:35.291Z,54.60
2022-11-07T13:32:08.498Z,55.00
2022-11-07T13:34:56.283Z,55.20
2022-11-07T13:37:27.369Z,55.70
2022-11-07T13:40:01.099Z,55.80
2022-11-07T13:42:32.529Z,56.00
2022-11-07T13:45:08.490Z,56.30
2022-11-07T13:47:41.512Z,56.60
2022-11-07T13:50:18.954Z,56.90
2022-11-07T13:52:53.827Z,57.70
2022-11-07T13:55:25.481Z,57.80
2022-11-07T13:57:56.294Z,58.20
2022-11-07T14:00:23.731Z,58.30
2022-11-07T14:02:53.256Z,58.50
2022-11-07T14:05:23.838Z,58.50
2022-11-07T14:07:54.818Z,58.60
2022-11-07T14:10:31.705Z,58.90
2022-11-07T14:13:07.757Z,59.30
2022-11-07T14:15:36.348Z,59.50
2022-11-07T14:18:03.920Z,59.60
2022-11-07T14:20:31.239Z,59.90
2022-11-07T14:23:01.066Z,60.00
2022-11-07T14:25:31.595Z,60.30
2022-11-07T14:27:59.529Z,60.30
2022-11-07T14:30:30.057Z,60.40
2022-11-07T14:32:59.405Z,60.50
2022-11-07T14:35:28.481Z,60.60
2022-11-07T14:37:56.095Z,60.60
2022-11-07T14:40:24.313Z,60.70
2022-11-07T14:42:53.457Z,60.90
2022-11-07T14:45:46.675Z,61.10
2022-11-07T14:48:11.592Z,61.10
2022-11-07T14:50:39.646Z,61.10
2022-11-07T14:53:10.128Z,61.20
2022-11-07T14:55:43.296Z,61.40
2022-11-07T14:58:12.209Z,61.40
2022-11-07T15:00:39.512Z,61.50
2022-11-07T15:03:06.852Z,61.60
2022-11-07T15:05:44.388Z,61.80
2022-11-07T15:08:27.648Z,62.00
2022-11-07T15:11:04.447Z,62.10
2022-11-07T15:13:34.350Z,62.20
2022-11-07T15:16:04.911Z,62.20
2022-11-07T15:18:37.712Z,62.20
2022-11-07T15:21:06.122Z,62.20
2022-11-07T15:23:35.137Z,62.40
2022-11-07T15:26:11.298Z,62.30
2022-11-07T15:28:47.829Z,62.50
2022-11-07T15:31:21.121Z,62.60
2022-11-07T15:33:49.132Z,62.50
2022-11-07T15:36:16.691Z,62.90
2022-11-07T15:38:44.058Z,63.10
2022-11-07T15:41:14.314Z,63.30
2022-11-07T15:43:41.596Z,63.40
2022-11-07T15:46:21.860Z,63.30
2022-11-07T15:48:49.339Z,63.40
2022-11-07T15:51:16.657Z,63.60
2022-11-07T15:53:43.943Z,63.70
2022-11-07T15:56:14.713Z,63.90
2022-11-07T15:58:42.488Z,64.10
2022-11-07T16:01:10.033Z,64.30
2022-11-07T16:03:38.773Z,64.40
2022-11-07T16:06:15.942Z,64.50
2022-11-07T16:08:43.636Z,64.60
2022-11-07T16:11:11.642Z,64.90
2022-11-07T16:13:39.507Z,64.60
2022-11-07T16:16:07.811Z,64.80
2022-11-07T16:18:41.412Z,64.50
2022-11-07T16:21:08.652Z,64.70
2022-11-07T16:23:36.053Z,64.80
2022-11-07T16:26:03.364Z,64.80
2022-11-07T16:28:32.645Z,64.90
2022-11-07T16:31:00.522Z,65.20
2022-11-07T16:33:28.391Z,65.30
2022-11-07T16:35:59.512Z,65.20
2022-11-07T16:38:31.321Z,65.20
2022-11-07T16:41:01.329Z,65.20
2022-11-07T16:43:28.632Z,65.20
2022-11-07T16:45:56.882Z,65.20
2022-11-07T16:48:26.346Z,65.40
2022-11-07T16:50:54.507Z,65.70
2022-11-07T16:53:23.892Z,65.70
2022-11-07T16:55:54.482Z,65.70
2022-11-07T16:58:24.939Z,66.00
2022-11-07T17:00:53.046Z,66.10
2022-11-07T17:03:20.532Z,66.10
2022-11-07T17:05:48.162Z,66.10
2022-11-07T17:08:19.061Z,66.20
2022-11-07T17:10:47.874Z,66.30
2022-11-07T17:13:15.148Z,66.30
2022-11-07T17:15:43.119Z,66.50
2022-11-07T17:18:20.259Z,66.70
2022-11-07T17:20:51.446Z,66.80
2022-11-07T17:23:23.971Z,66.50
2022-11-07T17:25:59.849Z,66.40
2022-11-07T17:28:30.433Z,66.50
2022-11-07T17:30:58.189Z,66.50
2022-11-07T17:33:29.690Z,66.70
2022-11-07T17:36:01.694Z,66.80
2022-11-07T17:38:33.697Z,66.90
2022-11-07T17:41:19.099Z,67.10
2022-11-07T17:43:47.814Z,67.10
2022-11-07T17:46:18.303Z,67.30
2022-11-07T17:48:49.134Z,67.30
2022-11-07T17:51:17.375Z,67.30
2022-11-07T17:53:52.451Z,67.20
2022-11-07T17:56:24.224Z,67.10
2022-11-07T17:58:55.108Z,66.90
2022-11-07T18:01:27.938Z,67.20
2022-11-07T18:04:00.507Z,67.10
2022-11-07T18:06:28.602Z,67.40
2022-11-07T18:09:01.604Z,67.40
2022-11-07T18:11:32.595Z,67.40
2022-11-07T18:14:02.109Z,67.30
2022-11-07T18:16:37.876Z,67.30
2022-11-07T18:19:11.015Z,67.40
2022-11-07T18:21:40.115Z,67.30
2022-11-07T18:24:08.113Z,67.30
2022-11-07T18:26:38.381Z,67.20
2022-11-07T18:29:08.621Z,67.20
2022-11-07T18:31:37.199Z,67.00
2022-11-07T18:34:06.836Z,66.90
2022-11-07T18:36:38.488Z,66.90
2022-11-07T18:39:09.786Z,66.90
2022-11-07T18:41:39.480Z,67.00
2022-11-07T18:44:07.031Z,66.60
2022-11-07T18:46:38.296Z,66.60
2022-11-07T18:49:10.297Z,66.80
2022-11-07T18:51:41.201Z,66.90
2022-11-07T18:54:09.677Z,67.00
2022-11-07T18:56:48.086Z,67.10
2022-11-07T18:59:15.423Z,67.20
2022-11-07T19:01:42.780Z,66.90
2022-11-07T19:04:11.511Z,67.00
2022-11-07T19:06:55.762Z,67.00
2022-11-07T19:09:28.083Z,67.10
2022-11-07T19:11:57.952Z,67.00
2022-11-07T19:14:25.771Z,67.20
2022-11-07T19:16:53.139Z,67.20
2022-11-07T19:19:20.838Z,67.10
2022-11-07T19:21:48.372Z,67.30
2022-11-07T19:24:15.973Z,67.50
2022-11-07T19:26:43.329Z,67.40
2022-11-07T19:29:12.142Z,67.50
2022-11-07T19:31:39.486Z,67.50
2022-11-07T19:34:06.987Z,67.50
2022-11-07T19:36:35.305Z,67.70
2022-11-07T19:39:03.074Z,67.80
2022-11-07T19:41:30.346Z,67.90
2022-11-07T19:43:59.227Z,68.20
2022-11-07T19:46:27.954Z,68.20
2022-11-07T19:48:55.656Z,68.30
2022-11-07T19:51:23.413Z,68.40
2022-11-07T19:53:54.887Z,68.40
2022-11-07T19:56:23.521Z,68.30
2022-11-07T19:58:51.058Z,68.30
2022-11-07T20:01:20.500Z,68.10
2022-11-07T20:03:52.291Z,68.40
2022-11-07T20:06:21.730Z,68.30
2022-11-07T20:08:49.339Z,68.20
2022-11-07T20:11:19.508Z,68.20
2022-11-07T20:13:47.163Z,68.20
2022-11-07T20:16:15.178Z,68.20
2022-11-07T20:18:43.113Z,68.30
2022-11-07T20:21:14.007Z,68.20
2022-11-07T20:23:42.722Z,68.40
2022-11-07T20:26:12.599Z,68.60
2022-11-07T20:28:40.247Z,68.60
2022-11-07T20:31:08.520Z,68.60
2022-11-07T20:33:36.015Z,68.70
2022-11-07T20:36:05.941Z,68.70
2022-11-07T20:38:35.551Z,68.70
2022-11-07T20:41:04.237Z,68.50
2022-11-07T20:43:33.736Z,68.60
2022-11-07T20:46:03.562Z,68.60
2022-11-07T20:48:30.810Z,68.60
2022-11-07T20:50:58.347Z,68.70
2022-11-07T20:53:25.650Z,68.70
2022-11-07T20:55:54.275Z,68.70
2022-11-07T20:58:21.556Z,68.60
2022-11-07T21:00:51.100Z,68.50
2022-11-07T21:03:18.854Z,68.40
2022-11-07T21:05:46.372Z,68.40
2022-11-07T21:08:13.701Z,68.30
2022-11-07T21:10:43.921Z,68.30
2022-11-07T21:13:14.485Z,68.10
2022-11-07T21:15:43.548Z,68.40
2022-11-07T21:18:11.232Z,68.40
2022-11-07T21:20:39.747Z,68.40
2022-11-07T21:23:07.602Z,68.30
2022-11-07T21:25:38.202Z,68.10
2022-11-07T21:28:06.584Z,68.30
2022-11-07T21:30:35.759Z,68.20
2022-11-07T21:33:03.036Z,68.10
2022-11-07T21:35:33.455Z,68.20
2022-11-07T21:38:01.047Z,68.30
2022-11-07T21:40:28.331Z,68.30
2022-11-07T21:42:55.659Z,68.10
2022-11-07T21:45:22.951Z,68.30
2022-11-07T21:47:51.519Z,68.70
2022-11-07T21:50:42.945Z,68.80
2022-11-07T21:53:07.535Z,68.70
2022-11-07T21:55:35.092Z,68.60
2022-11-07T21:58:02.588Z,68.60
2022-11-07T22:00:35.538Z,68.80
2022-11-07T22:03:04.862Z,69.00
2022-11-07T22:05:32.119Z,69.00
2022-11-07T22:07:59.404Z,69.20
2022-11-07T22:10:26.665Z,69.10
2022-11-07T22:12:53.890Z,69.00
2022-11-07T22:15:21.195Z,69.20
2022-11-07T22:17:48.519Z,69.20
2022-11-07T22:20:17.301Z,69.00
2022-11-07T22:22:44.553Z,69.10
2022-11-07T22:25:11.775Z,69.20
2022-11-07T22:27:39.133Z,69.10
2022-11-07T22:30:07.280Z,69.20
2022-11-07T22:32:34.503Z,69.00
2022-11-07T22:35:07.839Z,69.10
2022-11-07T22:37:37.707Z,69.10
2022-11-07T22:40:06.110Z,69.30
2022-11-07T22:42:33.476Z,69.20
2022-11-07T22:45:00.772Z,69.40
2022-11-07T22:47:28.019Z,69.30
2022-11-07T22:49:55.418Z,69.40
2022-11-07T22:52:22.690Z,69.50
2022-11-07T22:54:51.246Z,69.40
2022-11-07T22:57:18.671Z,69.50
2022-11-07T22:59:45.904Z,69.60
2022-11-07T23:02:13.241Z,69.70
2022-11-07T23:04:40.660Z,69.60
2022-11-07T23:07:08.095Z,69.60
2022-11-07T23:09:35.346Z,69.60
2022-11-07T23:12:04.223Z,69.70
2022-11-07T23:14:31.551Z,69.70
2022-11-07T23:16:59.087Z,69.70
2022-11-07T23:19:27.093Z,69.80
2022-11-07T23:21:56.316Z,70.10
2022-11-07T23:24:23.927Z,70.30
2022-11-07T23:26:51.270Z,70.00
2022-11-07T23:29:21.683Z,70.30
2022-11-07T23:31:50.783Z,70.30
2022-11-07T23:34:19.464Z,70.40
2022-11-07T23:36:49.427Z,70.20
2022-11-07T23:39:18.351Z,70.40
2022-11-07T23:41:46.184Z,70.20
2022-11-07T23:44:14.018Z,70.40
2022-11-07T23:47:01.416Z,70.30
2022-11-07T23:50:07.268Z,70.40
2022-11-07T23:52:34.518Z,70.60
2022-11-07T23:55:40.245Z,70.50
2022-11-07T23:58:25.933Z,70.70
